createdAt,value
2023-03-21T00:00:46.441Z,3.00
2023-03-21T00:03:15.573Z,3.28
2023-03-21T00:05:49.639Z,3.40
2023-03-21T00:08:18.190Z,2.95
2023-03-21T00:10:46.421Z,2.92
2023-03-21T00:13:15.758Z,2.90
2023-03-21T00:18:42.277Z,3.00
2023-03-21T00:24:07.903Z,3.35
2023-03-21T00:26:38.190Z,3.35
2023-03-21T00:29:06.666Z,3.28
2023-03-21T00:31:36.243Z,2.85
2023-03-21T00:34:07.542Z,3.35
2023-03-21T00:36:35.839Z,3.30
2023-03-21T00:39:07.477Z,3.15
2023-03-21T00:41:42.653Z,3.35
2023-03-21T00:44:13.423Z,3.38
2023-03-21T00:46:51.570Z,3.33
2023-03-21T00:49:22.750Z,2.90
2023-03-21T00:51:53.236Z,2.72
2023-03-21T00:54:21.806Z,3.33
2023-03-21T00:56:50.231Z,2.67
2023-03-21T00:59:18.572Z,3.08
2023-03-21T01:01:48.217Z,2.72
2023-03-21T01:04:17.022Z,2.40
2023-03-21T01:06:46.806Z,2.80
2023-03-21T01:09:17.894Z,3.03
2023-03-21T01:11:47.110Z,2.38
2023-03-21T01:14:24.465Z,2.42
2023-03-21T01:16:56.397Z,2.63
2023-03-21T01:19:41.057Z,2.40
2023-03-21T01:22:16.775Z,2.53
2023-03-21T01:24:53.897Z,3.22
2023-03-21T01:27:25.453Z,2.80
2023-03-21T01:29:53.753Z,2.95
2023-03-21T01:32:23.433Z,2.65
2023-03-21T01:34:51.760Z,2.50
2023-03-21T01:37:22.719Z,2.80
2023-03-21T01:39:52.408Z,3.17
2023-03-21T01:42:21.422Z,2.85
2023-03-21T01:44:56.632Z,2.65
2023-03-21T01:47:27.656Z,3.03
2023-03-21T01:50:07.238Z,2.70
2023-03-21T01:52:59.161Z,2.60
2023-03-21T01:55:36.441Z,2.40
2023-03-21T01:58:12.704Z,2.50
2023-03-21T02:00:51.416Z,2.30
2023-03-21T02:03:38.339Z,2.67
2023-03-21T02:06:25.848Z,2.92
2023-03-21T02:09:09.564Z,2.80
2023-03-21T02:11:39.963Z,2.80
2023-03-21T02:14:20.099Z,2.45
2023-03-21T02:17:07.721Z,2.53
2023-03-21T02:20:25.315Z,2.95
2023-03-21T02:23:23.776Z,2.45
2023-03-21T02:26:21.357Z,2.90
2023-03-21T02:28:57.227Z,2.88
2023-03-21T02:31:32.928Z,2.95
2023-03-21T02:34:17.192Z,3.55
2023-03-21T02:36:57.361Z,2.85
2023-03-21T02:39:30.566Z,2.70
2023-03-21T02:42:07.345Z,2.70
2023-03-21T02:44:43.029Z,2.80
2023-03-21T02:47:16.154Z,3.05
2023-03-21T02:49:50.397Z,3.03
2023-03-21T02:52:38.025Z,2.90
2023-03-21T02:55:14.194Z,2.42
2023-03-21T02:57:53.676Z,2.60
2023-03-21T03:00:25.509Z,2.47
2023-03-21T03:03:08.168Z,2.78
2023-03-21T03:05:45.451Z,2.90
2023-03-21T03:08:39.455Z,3.28
2023-03-21T03:11:21.364Z,2.60
2023-03-21T03:14:25.172Z,2.60
2023-03-21T03:17:11.117Z,2.55
2023-03-21T03:19:51.475Z,3.05
2023-03-21T03:22:25.918Z,2.17
2023-03-21T03:25:18.592Z,2.22
2023-03-21T03:27:57.682Z,2.15
2023-03-21T03:30:39.287Z,2.13
2023-03-21T03:33:14.896Z,1.73
2023-03-21T03:35:44.834Z,1.88
2023-03-21T03:38:15.234Z,1.58
2023-03-21T03:40:49.898Z,1.92
2023-03-21T03:43:41.818Z,2.45
2023-03-21T03:46:15.461Z,2.10
2023-03-21T03:48:51.487Z,1.98
2023-03-21T03:51:24.772Z,1.95
2023-03-21T03:54:11.498Z,1.70
2023-03-21T03:56:42.011Z,1.70
2023-03-21T03:59:10.953Z,2.10
2023-03-21T04:01:52.800Z,1.95
2023-03-21T04:04:22.803Z,1.80
2023-03-21T04:06:53.392Z,1.65
2023-03-21T04:09:40.923Z,1.90
2023-03-21T04:12:19.360Z,1.65
2023-03-21T04:15:11.062Z,1.58
2023-03-21T04:17:45.368Z,1.77
2023-03-21T04:20:20.939Z,1.95
2023-03-21T04:22:52.234Z,2.03
2023-03-21T04:25:32.506Z,2.03
2023-03-21T04:28:06.189Z,1.90
2023-03-21T04:30:46.981Z,2.00
2023-03-21T04:33:25.781Z,1.40
2023-03-21T04:35:59.083Z,1.90
2023-03-21T04:38:34.562Z,2.10
2023-03-21T04:41:07.001Z,1.80
2023-03-21T04:43:36.507Z,2.00
2023-03-21T04:46:33.862Z,2.28
2023-03-21T04:49:30.389Z,2.10
2023-03-21T04:51:58.781Z,1.83
2023-03-21T04:54:32.325Z,2.10
2023-03-21T04:57:00.887Z,2.40
2023-03-21T04:59:33.394Z,2.10
2023-03-21T05:02:04.683Z,1.80
2023-03-21T05:04:33.227Z,1.90
2023-03-21T05:07:04.773Z,1.98
2023-03-21T05:09:33.257Z,1.67
2023-03-21T05:12:04.790Z,1.90
2023-03-21T05:14:35.977Z,2.25
2023-03-21T05:17:10.508Z,1.70
2023-03-21T05:19:40.437Z,2.03
2023-03-21T05:22:14.180Z,1.80
2023-03-21T05:24:42.744Z,2.28
2023-03-21T05:27:34.021Z,2.15
2023-03-21T05:30:12.374Z,1.90
2023-03-21T05:32:41.174Z,1.90
2023-03-21T05:35:12.969Z,1.95
2023-03-21T05:37:41.938Z,2.42
2023-03-21T05:40:11.506Z,1.88
2023-03-21T05:42:44.106Z,1.75
2023-03-21T05:45:19.942Z,1.92
2023-03-21T05:47:50.312Z,2.22
2023-03-21T05:50:19.011Z,2.25
2023-03-21T05:52:56.845Z,1.80
2023-03-21T05:55:25.220Z,1.80
2023-03-21T05:57:54.227Z,2.10
2023-03-21T06:00:30.635Z,2.30
2023-03-21T06:03:18.930Z,2.25
2023-03-21T06:06:10.243Z,2.10
2023-03-21T06:08:44.158Z,2.45
2023-03-21T06:11:25.537Z,2.10
2023-03-21T06:14:00.861Z,2.10
2023-03-21T06:16:35.229Z,2.20
2023-03-21T06:19:06.630Z,1.90
2023-03-21T06:21:43.923Z,2.83
2023-03-21T06:24:12.348Z,2.30
2023-03-21T06:26:42.767Z,2.17
2023-03-21T06:29:12.120Z,2.17
2023-03-21T06:31:46.289Z,2.08
2023-03-21T06:34:14.727Z,2.35
2023-03-21T06:36:44.671Z,2.35
2023-03-21T06:39:15.986Z,2.42
2023-03-21T06:41:45.360Z,2.10
2023-03-21T06:44:13.790Z,2.10
2023-03-21T06:46:58.071Z,2.42
2023-03-21T06:49:26.767Z,2.38
2023-03-21T06:51:57.347Z,2.45
2023-03-21T06:54:25.794Z,2.53
2023-03-21T06:56:58.863Z,2.53
2023-03-21T06:59:33.401Z,2.30
2023-03-21T07:02:10.919Z,2.53
2023-03-21T07:04:45.984Z,2.65
2023-03-21T07:07:19.500Z,2.75
2023-03-21T07:09:50.827Z,2.80
2023-03-21T07:12:19.141Z,2.22
2023-03-21T07:15:09.775Z,3.15
2023-03-21T07:17:41.641Z,2.40
2023-03-21T07:20:12.476Z,2.78
2023-03-21T07:22:40.911Z,2.53
2023-03-21T07:25:10.467Z,2.67
2023-03-21T07:27:42.217Z,3.17
2023-03-21T07:30:12.097Z,3.67
2023-03-21T07:32:41.732Z,3.10
2023-03-21T07:35:13.471Z,4.65
2023-03-21T07:37:44.071Z,4.78
2023-03-21T07:40:16.746Z,4.03
2023-03-21T07:42:45.935Z,3.75
2023-03-21T07:45:21.231Z,3.42
2023-03-21T07:47:51.220Z,3.83
2023-03-21T07:50:21.332Z,4.00
2023-03-21T07:52:49.641Z,4.30
2023-03-21T07:55:18.685Z,4.65
2023-03-21T07:57:47.064Z,4.57
2023-03-21T08:00:22.810Z,5.35
2023-03-21T08:02:57.863Z,5.57
2023-03-21T08:05:28.682Z,6.13
2023-03-21T08:07:58.153Z,5.78
2023-03-21T08:10:26.783Z,5.93
2023-03-21T08:12:55.057Z,6.47
2023-03-21T08:15:24.024Z,5.43
2023-03-21T08:17:53.515Z,5.80
2023-03-21T08:20:25.007Z,5.07
2023-03-21T08:22:53.319Z,5.13
2023-03-21T08:25:22.831Z,5.50
2023-03-21T08:27:52.200Z,5.10
2023-03-21T08:30:22.758Z,5.15
2023-03-21T08:33:00.850Z,4.88
2023-03-21T08:35:38.361Z,5.47
2023-03-21T08:38:11.335Z,4.60
2023-03-21T08:40:39.672Z,5.82
2023-03-21T08:43:07.974Z,5.57
2023-03-21T08:45:36.689Z,5.50
2023-03-21T08:48:12.395Z,4.93
2023-03-21T08:50:41.121Z,5.07
2023-03-21T08:53:09.392Z,4.55
2023-03-21T08:55:38.263Z,5.15
2023-03-21T08:58:07.692Z,4.68
2023-03-21T09:00:36.116Z,4.75
2023-03-21T09:03:06.669Z,4.80
2023-03-21T09:05:37.317Z,4.72
2023-03-21T09:08:06.759Z,4.97
2023-03-21T09:10:35.042Z,4.70
2023-03-21T09:13:06.869Z,5.60
2023-03-21T09:15:35.426Z,5.18
2023-03-21T09:18:13.640Z,4.47
2023-03-21T09:20:44.653Z,4.90
2023-03-21T09:23:14.149Z,4.28
2023-03-21T09:25:42.938Z,3.97
2023-03-21T09:28:13.037Z,3.67
2023-03-21T09:30:41.576Z,3.85
2023-03-21T09:33:13.085Z,3.65
2023-03-21T09:35:41.840Z,3.40
2023-03-21T09:38:11.668Z,3.58
2023-03-21T09:40:57.274Z,3.65
2023-03-21T09:43:38.124Z,4.07
2023-03-21T09:46:11.990Z,3.53
2023-03-21T09:48:56.619Z,3.65
2023-03-21T09:51:28.606Z,3.35
2023-03-21T09:54:00.769Z,3.55
2023-03-21T09:56:31.906Z,3.80
2023-03-21T09:59:32.301Z,3.28
2023-03-21T10:02:04.841Z,3.42
2023-03-21T10:04:34.825Z,3.45
2023-03-21T10:07:15.979Z,3.25
2023-03-21T10:09:47.195Z,3.78
2023-03-21T10:12:21.635Z,3.50
2023-03-21T10:14:52.956Z,3.55
2023-03-21T10:17:30.922Z,3.00
2023-03-21T10:20:13.168Z,3.30
2023-03-21T10:22:41.896Z,2.75
2023-03-21T10:25:16.793Z,3.10
2023-03-21T10:27:45.968Z,3.33
2023-03-21T10:30:27.261Z,3.53
2023-03-21T10:32:59.680Z,3.22
2023-03-21T10:35:33.569Z,3.30
2023-03-21T10:38:06.709Z,3.15
2023-03-21T10:40:36.269Z,3.40
2023-03-21T10:43:19.767Z,3.42
2023-03-21T10:45:49.177Z,3.20
2023-03-21T10:48:17.744Z,3.15
2023-03-21T10:50:49.978Z,3.22
2023-03-21T10:53:22.803Z,3.40
2023-03-21T10:55:56.596Z,2.90
2023-03-21T10:58:28.811Z,3.38
2023-03-21T11:00:59.824Z,3.20
2023-03-21T11:03:33.835Z,3.05
2023-03-21T11:06:05.919Z,3.40
2023-03-21T11:08:39.814Z,3.28
2023-03-21T11:11:12.354Z,3.17
2023-03-21T11:13:42.716Z,3.53
2023-03-21T11:16:13.458Z,3.30
2023-03-21T11:18:43.884Z,4.15
2023-03-21T11:21:15.001Z,4.45
2023-03-21T11:24:14.529Z,4.35
2023-03-21T11:26:45.823Z,4.45
2023-03-21T11:29:27.737Z,4.60
2023-03-21T11:32:06.754Z,4.28
2023-03-21T11:34:45.887Z,3.60
2023-03-21T11:37:21.812Z,4.03
2023-03-21T11:39:56.899Z,5.43
2023-03-21T11:42:30.864Z,5.88
2023-03-21T11:45:05.137Z,5.22
2023-03-21T11:47:33.497Z,5.85
2023-03-21T11:50:07.583Z,4.43
2023-03-21T11:52:42.319Z,12.20
2023-03-21T11:55:36.403Z,10.25
2023-03-21T11:58:22.393Z,7.88
2023-03-21T12:00:59.275Z,3.92
2023-03-21T12:03:49.354Z,3.50
2023-03-21T12:06:27.362Z,3.58
2023-03-21T12:09:07.872Z,3.58
2023-03-21T12:11:44.449Z,3.13
2023-03-21T12:14:21.236Z,3.70
2023-03-21T12:17:33.162Z,3.45
2023-03-21T12:20:22.316Z,3.10
2023-03-21T12:23:13.760Z,3.65
2023-03-21T12:25:54.326Z,3.30
2023-03-21T12:28:33.631Z,4.18
2023-03-21T12:31:10.646Z,4.15
2023-03-21T12:33:55.486Z,4.00
2023-03-21T12:36:40.313Z,3.88
2023-03-21T12:39:18.912Z,4.28
2023-03-21T12:41:58.845Z,3.67
2023-03-21T12:44:33.189Z,4.07
2023-03-21T12:47:08.784Z,4.07
2023-03-21T12:49:42.376Z,3.92
2023-03-21T12:52:15.525Z,4.20
2023-03-21T12:54:50.510Z,3.55
2023-03-21T12:57:23.242Z,3.95
2023-03-21T12:59:57.070Z,3.95
2023-03-21T13:02:32.225Z,4.10
2023-03-21T13:05:07.963Z,3.70
2023-03-21T13:07:42.562Z,3.90
2023-03-21T13:10:15.679Z,4.22
2023-03-21T13:12:51.247Z,3.50
2023-03-21T13:15:44.815Z,4.03
2023-03-21T13:18:21.927Z,3.45
2023-03-21T13:20:54.057Z,3.78
2023-03-21T13:23:24.001Z,3.33
2023-03-21T13:25:56.650Z,3.60
2023-03-21T13:28:29.964Z,3.05
2023-03-21T13:31:18.043Z,2.92
2023-03-21T13:33:50.237Z,3.25
2023-03-21T13:36:25.666Z,2.53
2023-03-21T13:38:56.571Z,2.40
2023-03-21T13:41:32.337Z,2.97
2023-03-21T13:44:18.254Z,2.60
2023-03-21T13:46:56.214Z,3.53
2023-03-21T13:49:32.290Z,2.92
2023-03-21T13:52:04.778Z,3.17
2023-03-21T13:54:50.921Z,3.55
2023-03-21T13:57:38.209Z,3.40
2023-03-21T14:00:24.074Z,3.20
2023-03-21T14:02:57.416Z,3.80
2023-03-21T14:05:28.401Z,3.85
2023-03-21T14:08:12.261Z,3.97
2023-03-21T14:10:46.544Z,4.03
2023-03-21T14:13:19.970Z,4.53
2023-03-21T14:15:55.945Z,5.20
2023-03-21T14:18:28.469Z,4.75
2023-03-21T14:21:23.713Z,5.60
2023-03-21T14:24:04.778Z,5.90
2023-03-21T14:26:35.598Z,5.95
2023-03-21T14:29:22.841Z,5.95
2023-03-21T14:31:56.170Z,6.82
2023-03-21T14:34:26.064Z,7.15
2023-03-21T14:36:58.509Z,7.95
2023-03-21T14:39:30.078Z,8.55
2023-03-21T14:42:31.710Z,8.88
2023-03-21T14:45:00.524Z,8.55
2023-03-21T14:47:33.070Z,8.93
2023-03-21T14:50:04.788Z,9.30
2023-03-21T14:52:35.809Z,8.93
2023-03-21T14:55:15.928Z,9.68
2023-03-21T14:57:44.432Z,9.80
2023-03-21T15:00:22.850Z,9.90
2023-03-21T15:02:53.262Z,10.13
2023-03-21T15:05:25.953Z,9.48
2023-03-21T15:07:58.692Z,9.75
2023-03-21T15:10:30.774Z,10.13
2023-03-21T15:13:04.768Z,9.55
2023-03-21T15:15:34.023Z,9.68
2023-03-21T15:18:05.968Z,8.90
2023-03-21T15:20:38.664Z,9.18
2023-03-21T15:23:12.893Z,9.00
2023-03-21T15:25:42.013Z,8.63
2023-03-21T15:28:14.123Z,8.43
2023-03-21T15:30:49.089Z,8.88
2023-03-21T15:33:18.413Z,9.20
2023-03-21T15:35:54.169Z,9.05
2023-03-21T15:38:30.436Z,8.73
2023-03-21T15:41:16.217Z,9.63
2023-03-21T15:43:44.897Z,9.38
2023-03-21T15:46:16.836Z,9.52
2023-03-21T15:48:46.764Z,9.02
2023-03-21T15:51:22.875Z,9.05
2023-03-21T15:53:55.105Z,9.27
2023-03-21T15:56:23.868Z,9.10
2023-03-21T15:58:54.168Z,9.55
2023-03-21T16:01:26.297Z,9.25
2023-03-21T16:03:58.268Z,9.18
2023-03-21T16:06:33.536Z,9.63
2023-03-21T16:09:12.290Z,8.80
2023-03-21T16:11:42.641Z,9.07
2023-03-21T16:14:12.601Z,8.02
2023-03-21T16:16:41.433Z,8.20
2023-03-21T16:19:09.791Z,8.35
2023-03-21T16:21:39.146Z,7.88
2023-03-21T16:24:13.392Z,8.73
2023-03-21T16:26:45.970Z,7.80
2023-03-21T16:29:15.865Z,7.97
2023-03-21T16:31:44.726Z,7.80
2023-03-21T16:34:13.148Z,8.52
2023-03-21T16:36:43.333Z,8.50
2023-03-21T16:39:18.322Z,7.78
2023-03-21T16:41:47.449Z,7.22
2023-03-21T16:44:17.176Z,7.88
2023-03-21T16:46:47.069Z,7.25
2023-03-21T16:49:19.683Z,7.30
2023-03-21T16:51:48.002Z,7.55
2023-03-21T16:54:17.894Z,10.32
2023-03-21T16:56:50.446Z,8.93
2023-03-21T16:59:19.400Z,8.50
2023-03-21T17:01:48.937Z,8.27
2023-03-21T17:04:19.293Z,7.90
2023-03-21T17:06:49.992Z,8.48
2023-03-21T17:09:21.225Z,8.20
2023-03-21T17:11:49.840Z,8.77
2023-03-21T17:14:18.587Z,8.38
2023-03-21T17:16:47.209Z,8.25
2023-03-21T17:19:17.178Z,8.85
2023-03-21T17:21:46.463Z,8.85
2023-03-21T17:24:15.597Z,7.15
2023-03-21T17:26:45.343Z,8.00
2023-03-21T17:29:15.400Z,8.57
2023-03-21T17:31:47.178Z,8.50
2023-03-21T17:34:15.563Z,8.73
2023-03-21T17:36:46.156Z,8.60
2023-03-21T17:39:21.233Z,9.50
2023-03-21T17:41:51.868Z,8.75
2023-03-21T17:44:20.388Z,8.70
2023-03-21T17:46:51.179Z,8.77
2023-03-21T17:49:21.087Z,9.90
2023-03-21T17:51:50.325Z,10.00
2023-03-21T17:54:18.830Z,8.98
2023-03-21T17:56:47.267Z,9.65
2023-03-21T17:59:16.931Z,9.02
2023-03-21T18:01:45.367Z,10.48
2023-03-21T18:04:13.824Z,9.32
2023-03-21T18:06:42.225Z,9.98
2023-03-21T18:09:12.324Z,9.18
2023-03-21T18:11:41.786Z,9.52
2023-03-21T18:14:17.180Z,9.52
2023-03-21T18:16:54.036Z,9.40
2023-03-21T18:19:22.372Z,11.05
2023-03-21T18:21:52.485Z,11.05
2023-03-21T18:24:20.817Z,11.68
2023-03-21T18:26:49.955Z,11.93
2023-03-21T18:30:17.427Z,13.40
2023-03-21T18:32:09.631Z,16.08
2023-03-21T18:34:42.220Z,16.60
2023-03-21T18:37:13.423Z,16.38
2023-03-21T18:39:44.471Z,16.65
2023-03-21T18:42:18.107Z,18.20
2023-03-21T18:44:50.675Z,18.08
2023-03-21T18:47:20.828Z,18.13
2023-03-21T18:52:37.588Z,18.90
2023-03-21T18:55:11.866Z,18.40
2023-03-21T18:57:40.564Z,18.73
2023-03-21T19:00:13.410Z,19.75
2023-03-21T19:02:47.351Z,19.42
2023-03-21T19:05:17.982Z,19.48
2023-03-21T19:07:47.749Z,20.00
2023-03-21T19:10:20.242Z,21.27
2023-03-21T19:12:49.439Z,20.25
2023-03-21T19:15:21.336Z,20.08
2023-03-21T19:20:44.537Z,20.98
2023-03-21T19:23:12.846Z,20.70
2023-03-21T19:25:41.356Z,20.48
2023-03-21T19:28:09.800Z,17.52
2023-03-21T19:30:38.328Z,16.80
2023-03-21T19:33:08.414Z,16.27
2023-03-21T19:35:40.929Z,16.60
2023-03-21T19:38:11.667Z,16.30
2023-03-21T19:40:40.935Z,18.42
2023-03-21T19:43:31.084Z,18.23
2023-03-21T19:45:58.106Z,18.08
2023-03-21T19:48:28.167Z,17.02
2023-03-21T19:53:44.931Z,17.00
2023-03-21T19:56:21.804Z,18.45
2023-03-21T19:58:52.073Z,18.02
2023-03-21T20:01:21.124Z,17.15
2023-03-21T20:03:51.458Z,18.00
2023-03-21T20:06:19.892Z,19.10
2023-03-21T20:11:49.818Z,19.05
2023-03-21T20:14:18.135Z,19.40
2023-03-21T20:16:47.165Z,20.13
2023-03-21T20:19:16.981Z,20.88
2023-03-21T20:21:52.158Z,20.27
2023-03-21T20:24:24.834Z,22.23
2023-03-21T20:26:54.945Z,22.67
2023-03-21T20:32:12.344Z,22.50
2023-03-21T20:34:44.289Z,22.65
2023-03-21T20:37:13.332Z,23.95
2023-03-21T20:39:42.389Z,24.30
2023-03-21T20:42:10.779Z,23.10
2023-03-21T20:44:56.775Z,25.20
2023-03-21T20:47:26.678Z,24.67
2023-03-21T20:49:58.402Z,23.98
2023-03-21T20:52:54.903Z,25.10
2023-03-21T20:55:17.385Z,24.50
2023-03-21T20:57:48.579Z,27.10
2023-03-21T21:00:17.968Z,28.55
2023-03-21T21:02:48.130Z,28.67
2023-03-21T21:05:30.804Z,28.95
2023-03-21T21:08:04.866Z,28.65
2023-03-21T21:10:33.786Z,29.55
2023-03-21T21:13:07.381Z,31.08
2023-03-21T21:15:35.715Z,31.80
2023-03-21T21:18:07.615Z,30.48
2023-03-21T21:20:38.400Z,29.52
2023-03-21T21:23:09.670Z,28.23
2023-03-21T21:25:38.205Z,26.30
2023-03-21T21:28:11.742Z,24.83
2023-03-21T21:30:42.750Z,21.80
2023-03-21T21:33:11.247Z,19.83
2023-03-21T21:35:47.318Z,18.60
2023-03-21T21:38:17.452Z,17.55
2023-03-21T21:40:45.977Z,18.08
2023-03-21T21:43:14.836Z,16.48
2023-03-21T21:45:43.365Z,17.45
2023-03-21T21:48:11.910Z,18.95
2023-03-21T21:50:42.395Z,19.52
2023-03-21T21:53:13.149Z,21.52
2023-03-21T21:55:41.524Z,20.98
2023-03-21T21:58:13.502Z,21.67
2023-03-21T22:00:42.672Z,23.48
2023-03-21T22:03:11.995Z,23.15
2023-03-21T22:05:44.245Z,22.88
2023-03-21T22:08:12.622Z,22.23
2023-03-21T22:10:41.230Z,22.27
2023-03-21T22:13:09.634Z,21.45
2023-03-21T22:15:39.236Z,21.55
2023-03-21T22:18:12.023Z,22.45
2023-03-21T22:20:41.616Z,22.55
2023-03-21T22:23:09.871Z,22.48
2023-03-21T22:25:38.387Z,26.17
2023-03-21T22:28:06.700Z,27.50
2023-03-21T22:30:34.979Z,25.77
2023-03-21T22:33:33.415Z,27.35
2023-03-21T22:36:09.256Z,23.88
2023-03-21T22:38:38.155Z,23.35
2023-03-21T22:41:07.474Z,19.77
2023-03-21T22:43:35.929Z,18.35
2023-03-21T22:46:07.294Z,18.70
2023-03-21T22:48:35.593Z,17.90
2023-03-21T22:51:08.817Z,19.48
2023-03-21T22:53:37.383Z,21.23
2023-03-21T22:56:07.467Z,22.38
2023-03-21T22:58:35.848Z,22.90
2023-03-21T23:01:06.173Z,23.25
2023-03-21T23:03:34.513Z,23.85
2023-03-21T23:06:05.977Z,22.23
2023-03-21T23:08:35.778Z,18.73
2023-03-21T23:11:07.645Z,17.70
2023-03-21T23:13:36.656Z,16.30
2023-03-21T23:16:08.693Z,19.33
2023-03-21T23:18:38.528Z,20.05
2023-03-21T23:21:13.141Z,19.42
2023-03-21T23:23:50.103Z,19.23
2023-03-21T23:26:20.941Z,20.17
2023-03-21T23:28:49.581Z,19.83
2023-03-21T23:31:21.212Z,18.17
2023-03-21T23:33:50.956Z,17.58
2023-03-21T23:36:20.934Z,17.42
2023-03-21T23:38:51.317Z,18.35
2023-03-21T23:41:22.137Z,20.40
2023-03-21T23:43:51.009Z,24.05
2023-03-21T23:46:21.796Z,19.38
2023-03-21T23:48:50.576Z,20.58
2023-03-21T23:51:20.601Z,19.50
2023-03-21T23:53:51.379Z,21.88
2023-03-21T23:56:21.831Z,18.30
2023-03-21T23:58:51.232Z,17.63
